sensor_id;sensor_type;location;lat;lon;timestamp;temperature;humidity
11142;DHT22;5625;50.122;19.864;2022-11-15T00:00:16;6.00;99.90
11142;DHT22;5625;50.122;19.864;2022-11-15T00:02:44;6.00;99.90
11142;DHT22;5625;50.122;19.864;2022-11-15T00:05:12;6.00;99.90
11142;DHT22;5625;50.122;19.864;2022-11-15T00:07:42;6.00;99.90
11142;DHT22;5625;50.122;19.864;2022-11-15T00:10:22;6.00;99.90
11142;DHT22;5625;50.122;19.864;2022-11-15T00:12:50;5.90;99.90
11142;DHT22;5625;50.122;19.864;2022-11-15T00:15:18;5.90;99.90
11142;DHT22;5625;50.122;19.864;2022-11-15T00:17:48;5.90;99.90
11142;DHT22;5625;50.122;19.864;2022-11-15T00:20:19;5.90;99.90
11142;DHT22;5625;50.122;19.864;2022-11-15T00:22:50;5.90;99.90
11142;DHT22;5625;50.122;19.864;2022-11-15T00:25:18;5.90;99.90
11142;DHT22;5625;50.122;19.864;2022-11-15T00:27:46;5.90;99.90
11142;DHT22;5625;50.122;19.864;2022-11-15T00:30:14;5.90;99.90
11142;DHT22;5625;50.122;19.864;2022-11-15T00:32:50;5.90;99.90
11142;DHT22;5625;50.122;19.864;2022-11-15T00:35:24;5.90;99.90
11142;DHT22;5625;50.122;19.864;2022-11-15T00:37:55;5.80;99.90
11142;DHT22;5625;50.122;19.864;2022-11-15T00:40:23;5.80;99.90
11142;DHT22;5625;50.122;19.864;2022-11-15T00:42:51;5.80;99.90
11142;DHT22;5625;50.122;19.864;2022-11-15T00:45:19;5.80;99.90
11142;DHT22;5625;50.122;19.864;2022-11-15T00:47:47;5.80;99.90
11142;DHT22;5625;50.122;19.864;2022-11-15T00:50:16;5.80;99.90
11142;DHT22;5625;50.122;19.864;2022-11-15T00:52:44;5.70;99.90
11142;DHT22;5625;50.122;19.864;2022-11-15T00:55:15;5.70;99.90
11142;DHT22;5625;50.122;19.864;2022-11-15T00:57:44;5.70;99.90
11142;DHT22;5625;50.122;19.864;2022-11-15T01:00:14;5.70;99.90
11142;DHT22;5625;50.122;19.864;2022-11-15T01:02:42;5.80;99.90
11142;DHT22;5625;50.122;19.864;2022-11-15T01:05:10;5.80;99.90
11142;DHT22;5625;50.122;19.864;2022-11-15T01:07:38;5.80;99.90
11142;DHT22;5625;50.122;19.864;2022-11-15T01:10:07;5.70;99.90
11142;DHT22;5625;50.122;19.864;2022-11-15T01:12:37;5.70;99.90
11142;DHT22;5625;50.122;19.864;2022-11-15T01:15:06;5.70;99.90
11142;DHT22;5625;50.122;19.864;2022-11-15T01:17:34;5.70;99.90
11142;DHT22;5625;50.122;19.864;2022-11-15T01:20:16;5.70;99.90
11142;DHT22;5625;50.122;19.864;2022-11-15T01:22:51;5.70;99.90
11142;DHT22;5625;50.122;19.864;2022-11-15T01:25:20;5.70;99.90
11142;DHT22;5625;50.122;19.864;2022-11-15T01:27:49;5.80;99.90
11142;DHT22;5625;50.122;19.864;2022-11-15T01:30:18;5.80;99.90
11142;DHT22;5625;50.122;19.864;2022-11-15T01:32:53;5.80;99.90
11142;DHT22;5625;50.122;19.864;2022-11-15T01:35:27;5.70;99.90
11142;DHT22;5625;50.122;19.864;2022-11-15T01:38:02;5.70;99.90
11142;DHT22;5625;50.122;19.864;2022-11-15T01:40:29;5.70;99.90
11142;DHT22;5625;50.122;19.864;2022-11-15T01:42:59;5.70;99.90
11142;DHT22;5625;50.122;19.864;2022-11-15T01:45:27;5.70;99.90
11142;DHT22;5625;50.122;19.864;2022-11-15T01:47:55;5.70;99.90
11142;DHT22;5625;50.122;19.864;2022-11-15T01:50:26;5.70;99.90
11142;DHT22;5625;50.122;19.864;2022-11-15T01:52:56;5.70;99.90
11142;DHT22;5625;50.122;19.864;2022-11-15T01:55:26;5.70;99.90
11142;DHT22;5625;50.122;19.864;2022-11-15T01:57:57;5.70;99.90
11142;DHT22;5625;50.122;19.864;2022-11-15T02:00:29;5.70;99.90
11142;DHT22;5625;50.122;19.864;2022-11-15T02:03:04;5.70;99.90
11142;DHT22;5625;50.122;19.864;2022-11-15T02:05:33;5.70;99.90
11142;DHT22;5625;50.122;19.864;2022-11-15T02:08:03;5.60;99.90
11142;DHT22;5625;50.122;19.864;2022-11-15T02:10:31;5.60;99.90
11142;DHT22;5625;50.122;19.864;2022-11-15T02:13:00;5.60;99.90
11142;DHT22;5625;50.122;19.864;2022-11-15T02:15:41;5.60;99.90
11142;DHT22;5625;50.122;19.864;2022-11-15T02:18:34;5.60;99.90
11142;DHT22;5625;50.122;19.864;2022-11-15T02:21:13;5.60;99.90
11142;DHT22;5625;50.122;19.864;2022-11-15T02:27:22;5.60;99.90
11142;DHT22;5625;50.122;19.864;2022-11-15T02:30:04;5.60;99.90
11142;DHT22;5625;50.122;19.864;2022-11-15T02:32:42;5.60;99.90
11142;DHT22;5625;50.122;19.864;2022-11-15T02:35:16;5.60;99.90
11142;DHT22;5625;50.122;19.864;2022-11-15T02:37:53;5.60;99.90
11142;DHT22;5625;50.122;19.864;2022-11-15T02:40:29;5.60;99.90
11142;DHT22;5625;50.122;19.864;2022-11-15T02:43:07;5.60;99.90
11142;DHT22;5625;50.122;19.864;2022-11-15T02:45:59;5.70;99.90
11142;DHT22;5625;50.122;19.864;2022-11-15T02:48:31;5.70;99.90
11142;DHT22;5625;50.122;19.864;2022-11-15T02:51:01;5.70;99.90
11142;DHT22;5625;50.122;19.864;2022-11-15T02:53:29;5.70;99.90
11142;DHT22;5625;50.122;19.864;2022-11-15T02:55:58;5.70;99.90
11142;DHT22;5625;50.122;19.864;2022-11-15T03:01:27;5.70;99.90
11142;DHT22;5625;50.122;19.864;2022-11-15T03:04:14;5.60;99.90
11142;DHT22;5625;50.122;19.864;2022-11-15T03:07:00;5.60;99.90
11142;DHT22;5625;50.122;19.864;2022-11-15T03:09:34;5.60;99.90
11142;DHT22;5625;50.122;19.864;2022-11-15T03:12:07;5.50;99.90
11142;DHT22;5625;50.122;19.864;2022-11-15T03:14:45;5.50;99.90
11142;DHT22;5625;50.122;19.864;2022-11-15T03:17:19;5.50;99.90
11142;DHT22;5625;50.122;19.864;2022-11-15T03:19:54;5.50;99.90
11142;DHT22;5625;50.122;19.864;2022-11-15T03:22:33;5.60;99.90
11142;DHT22;5625;50.122;19.864;2022-11-15T03:25:06;5.60;99.90
11142;DHT22;5625;50.122;19.864;2022-11-15T03:27:37;5.60;99.90
11142;DHT22;5625;50.122;19.864;2022-11-15T03:30:08;5.60;99.90
11142;DHT22;5625;50.122;19.864;2022-11-15T03:32:40;5.60;99.90
11142;DHT22;5625;50.122;19.864;2022-11-15T03:35:14;5.60;99.90
11142;DHT22;5625;50.122;19.864;2022-11-15T03:37:48;5.60;99.90
11142;DHT22;5625;50.122;19.864;2022-11-15T03:40:20;5.60;99.90
11142;DHT22;5625;50.122;19.864;2022-11-15T03:42:57;5.60;99.90
11142;DHT22;5625;50.122;19.864;2022-11-15T03:45:31;5.60;99.90
11142;DHT22;5625;50.122;19.864;2022-11-15T03:48:02;5.60;99.90
11142;DHT22;5625;50.122;19.864;2022-11-15T03:50:34;5.60;99.90
11142;DHT22;5625;50.122;19.864;2022-11-15T03:53:03;5.60;99.90
11142;DHT22;5625;50.122;19.864;2022-11-15T03:55:32;5.60;99.90
11142;DHT22;5625;50.122;19.864;2022-11-15T03:58:02;5.60;99.90
11142;DHT22;5625;50.122;19.864;2022-11-15T04:00:30;5.60;99.90
11142;DHT22;5625;50.122;19.864;2022-11-15T04:02:58;5.60;99.90
11142;DHT22;5625;50.122;19.864;2022-11-15T04:05:26;5.60;99.90
11142;DHT22;5625;50.122;19.864;2022-11-15T04:07:56;5.60;99.90
11142;DHT22;5625;50.122;19.864;2022-11-15T04:10:24;5.60;99.90
11142;DHT22;5625;50.122;19.864;2022-11-15T04:12:52;5.60;99.90
11142;DHT22;5625;50.122;19.864;2022-11-15T04:15:22;5.60;99.90
11142;DHT22;5625;50.122;19.864;2022-11-15T04:17:52;5.60;99.90
11142;DHT22;5625;50.122;19.864;2022-11-15T04:20:22;5.60;99.90
11142;DHT22;5625;50.122;19.864;2022-11-15T04:23:16;5.60;99.90
11142;DHT22;5625;50.122;19.864;2022-11-15T04:26:04;5.60;99.90
11142;DHT22;5625;50.122;19.864;2022-11-15T04:28:39;5.60;99.90
11142;DHT22;5625;50.122;19.864;2022-11-15T04:31:28;5.60;99.90
11142;DHT22;5625;50.122;19.864;2022-11-15T04:33:56;5.60;99.90
11142;DHT22;5625;50.122;19.864;2022-11-15T04:36:24;5.60;99.90
11142;DHT22;5625;50.122;19.864;2022-11-15T04:39:11;5.60;99.90
11142;DHT22;5625;50.122;19.864;2022-11-15T04:41:39;5.60;99.90
11142;DHT22;5625;50.122;19.864;2022-11-15T04:44:07;5.60;99.90
11142;DHT22;5625;50.122;19.864;2022-11-15T04:46:42;5.60;99.90
11142;DHT22;5625;50.122;19.864;2022-11-15T04:49:10;5.60;99.90
11142;DHT22;5625;50.122;19.864;2022-11-15T04:51:38;5.60;99.90
11142;DHT22;5625;50.122;19.864;2022-11-15T04:54:06;5.60;99.90
11142;DHT22;5625;50.122;19.864;2022-11-15T04:56:36;5.60;99.90
11142;DHT22;5625;50.122;19.864;2022-11-15T04:59:04;5.60;99.90
11142;DHT22;5625;50.122;19.864;2022-11-15T05:01:32;5.60;99.90
11142;DHT22;5625;50.122;19.864;2022-11-15T05:04:11;5.60;99.90
11142;DHT22;5625;50.122;19.864;2022-11-15T05:06:53;5.60;99.90
11142;DHT22;5625;50.122;19.864;2022-11-15T05:09:22;5.60;99.90
11142;DHT22;5625;50.122;19.864;2022-11-15T05:11:51;5.60;99.90
11142;DHT22;5625;50.122;19.864;2022-11-15T05:14:25;5.50;99.90
11142;DHT22;5625;50.122;19.864;2022-11-15T05:16:54;5.50;99.90
11142;DHT22;5625;50.122;19.864;2022-11-15T05:19:23;5.50;99.90
11142;DHT22;5625;50.122;19.864;2022-11-15T05:21:51;5.50;99.90
11142;DHT22;5625;50.122;19.864;2022-11-15T05:24:22;5.50;99.90
11142;DHT22;5625;50.122;19.864;2022-11-15T05:26:51;5.50;99.90
11142;DHT22;5625;50.122;19.864;2022-11-15T05:29:19;5.50;99.90
11142;DHT22;5625;50.122;19.864;2022-11-15T05:31:47;5.50;99.90
11142;DHT22;5625;50.122;19.864;2022-11-15T05:34:22;5.50;99.90
11142;DHT22;5625;50.122;19.864;2022-11-15T05:36:53;5.50;99.90
11142;DHT22;5625;50.122;19.864;2022-11-15T05:39:22;5.50;99.90
11142;DHT22;5625;50.122;19.864;2022-11-15T05:41:52;5.50;99.90
11142;DHT22;5625;50.122;19.864;2022-11-15T05:44:28;5.50;99.90
11142;DHT22;5625;50.122;19.864;2022-11-15T05:46:57;5.50;99.90
11142;DHT22;5625;50.122;19.864;2022-11-15T05:49:29;5.40;99.90
11142;DHT22;5625;50.122;19.864;2022-11-15T05:51:58;5.50;99.90
11142;DHT22;5625;50.122;19.864;2022-11-15T05:54:35;5.50;99.90
11142;DHT22;5625;50.122;19.864;2022-11-15T05:57:06;5.40;99.90
11142;DHT22;5625;50.122;19.864;2022-11-15T05:59:34;5.40;99.90
11142;DHT22;5625;50.122;19.864;2022-11-15T06:02:03;5.40;99.90
11142;DHT22;5625;50.122;19.864;2022-11-15T06:04:31;5.40;99.90
11142;DHT22;5625;50.122;19.864;2022-11-15T06:07:05;5.40;99.90
11142;DHT22;5625;50.122;19.864;2022-11-15T06:09:34;5.30;99.90
11142;DHT22;5625;50.122;19.864;2022-11-15T06:12:03;5.30;99.90
11142;DHT22;5625;50.122;19.864;2022-11-15T06:14:32;5.30;99.90
11142;DHT22;5625;50.122;19.864;2022-11-15T06:17:00;5.40;99.90
11142;DHT22;5625;50.122;19.864;2022-11-15T06:19:36;5.30;99.90
11142;DHT22;5625;50.122;19.864;2022-11-15T06:22:05;5.30;99.90
11142;DHT22;5625;50.122;19.864;2022-11-15T06:24:33;5.20;99.90
11142;DHT22;5625;50.122;19.864;2022-11-15T06:27:01;5.30;99.90
11142;DHT22;5625;50.122;19.864;2022-11-15T06:29:29;5.20;99.90
11142;DHT22;5625;50.122;19.864;2022-11-15T06:31:59;5.20;99.90
11142;DHT22;5625;50.122;19.864;2022-11-15T06:34:27;5.30;99.90
11142;DHT22;5625;50.122;19.864;2022-11-15T06:36:55;5.30;99.90
11142;DHT22;5625;50.122;19.864;2022-11-15T06:39:23;5.30;99.90
11142;DHT22;5625;50.122;19.864;2022-11-15T06:41:51;5.30;99.90
11142;DHT22;5625;50.122;19.864;2022-11-15T06:44:22;5.30;99.90
11142;DHT22;5625;50.122;19.864;2022-11-15T06:46:50;5.40;99.90
11142;DHT22;5625;50.122;19.864;2022-11-15T06:49:19;5.40;99.90
11142;DHT22;5625;50.122;19.864;2022-11-15T06:51:48;5.40;99.90
11142;DHT22;5625;50.122;19.864;2022-11-15T06:54:16;5.40;99.90
11142;DHT22;5625;50.122;19.864;2022-11-15T06:56:44;5.40;99.90
11142;DHT22;5625;50.122;19.864;2022-11-15T06:59:12;5.40;99.90
11142;DHT22;5625;50.122;19.864;2022-11-15T07:01:40;5.30;99.90
11142;DHT22;5625;50.122;19.864;2022-11-15T07:04:08;5.40;99.90
11142;DHT22;5625;50.122;19.864;2022-11-15T07:06:38;5.30;99.90
11142;DHT22;5625;50.122;19.864;2022-11-15T07:09:06;5.30;99.90
11142;DHT22;5625;50.122;19.864;2022-11-15T07:11:34;5.40;99.90
11142;DHT22;5625;50.122;19.864;2022-11-15T07:14:02;5.40;99.90
11142;DHT22;5625;50.122;19.864;2022-11-15T07:16:30;5.40;99.90
11142;DHT22;5625;50.122;19.864;2022-11-15T07:18:58;5.40;99.90
11142;DHT22;5625;50.122;19.864;2022-11-15T07:21:26;5.40;99.90
11142;DHT22;5625;50.122;19.864;2022-11-15T07:24:09;5.30;99.90
11142;DHT22;5625;50.122;19.864;2022-11-15T07:26:43;5.30;99.90
11142;DHT22;5625;50.122;19.864;2022-11-15T07:29:12;5.40;99.90
11142;DHT22;5625;50.122;19.864;2022-11-15T07:31:40;5.40;99.90
11142;DHT22;5625;50.122;19.864;2022-11-15T07:34:08;5.50;99.90
11142;DHT22;5625;50.122;19.864;2022-11-15T07:36:37;5.40;99.90
11142;DHT22;5625;50.122;19.864;2022-11-15T07:39:05;5.40;99.90
11142;DHT22;5625;50.122;19.864;2022-11-15T07:41:34;5.40;99.90
11142;DHT22;5625;50.122;19.864;2022-11-15T07:44:02;5.40;99.90
11142;DHT22;5625;50.122;19.864;2022-11-15T07:46:36;5.40;99.90
11142;DHT22;5625;50.122;19.864;2022-11-15T07:49:05;5.40;99.90
11142;DHT22;5625;50.122;19.864;2022-11-15T07:51:33;5.40;99.90
11142;DHT22;5625;50.122;19.864;2022-11-15T07:54:01;5.50;99.90
11142;DHT22;5625;50.122;19.864;2022-11-15T07:56:30;5.60;99.90
11142;DHT22;5625;50.122;19.864;2022-11-15T07:58:59;5.60;99.90
11142;DHT22;5625;50.122;19.864;2022-11-15T08:01:27;5.70;99.90
11142;DHT22;5625;50.122;19.864;2022-11-15T08:03:55;5.70;99.90
11142;DHT22;5625;50.122;19.864;2022-11-15T08:06:30;5.70;99.90
11142;DHT22;5625;50.122;19.864;2022-11-15T08:08:59;5.80;99.90
11142;DHT22;5625;50.122;19.864;2022-11-15T08:11:27;5.90;99.90
11142;DHT22;5625;50.122;19.864;2022-11-15T08:13:56;6.10;99.90
11142;DHT22;5625;50.122;19.864;2022-11-15T08:16:26;6.30;99.90
11142;DHT22;5625;50.122;19.864;2022-11-15T08:18:54;6.30;99.90
11142;DHT22;5625;50.122;19.864;2022-11-15T08:21:22;6.30;99.90
11142;DHT22;5625;50.122;19.864;2022-11-15T08:23:50;6.40;99.90
11142;DHT22;5625;50.122;19.864;2022-11-15T08:26:18;6.40;99.90
11142;DHT22;5625;50.122;19.864;2022-11-15T08:28:46;6.50;99.90
11142;DHT22;5625;50.122;19.864;2022-11-15T08:31:16;6.60;99.90
11142;DHT22;5625;50.122;19.864;2022-11-15T08:33:46;6.70;99.90
11142;DHT22;5625;50.122;19.864;2022-11-15T08:36:16;6.90;99.90
11142;DHT22;5625;50.122;19.864;2022-11-15T08:38:44;7.00;99.90
11142;DHT22;5625;50.122;19.864;2022-11-15T08:41:15;7.10;99.90
11142;DHT22;5625;50.122;19.864;2022-11-15T08:43:46;7.00;99.90
11142;DHT22;5625;50.122;19.864;2022-11-15T08:46:17;7.10;99.90
11142;DHT22;5625;50.122;19.864;2022-11-15T08:48:47;7.20;99.90
11142;DHT22;5625;50.122;19.864;2022-11-15T08:51:21;7.40;99.90
11142;DHT22;5625;50.122;19.864;2022-11-15T08:53:50;7.60;99.90
11142;DHT22;5625;50.122;19.864;2022-11-15T08:56:18;7.80;99.90
11142;DHT22;5625;50.122;19.864;2022-11-15T08:58:46;7.90;99.90
11142;DHT22;5625;50.122;19.864;2022-11-15T09:01:22;7.90;99.90
11142;DHT22;5625;50.122;19.864;2022-11-15T09:03:52;8.10;99.90
11142;DHT22;5625;50.122;19.864;2022-11-15T09:06:20;8.20;99.90
11142;DHT22;5625;50.122;19.864;2022-11-15T09:08:48;8.30;99.90
11142;DHT22;5625;50.122;19.864;2022-11-15T09:11:16;8.30;99.90
11142;DHT22;5625;50.122;19.864;2022-11-15T09:13:47;8.40;99.90
11142;DHT22;5625;50.122;19.864;2022-11-15T09:16:17;8.40;99.90
11142;DHT22;5625;50.122;19.864;2022-11-15T09:18:46;8.50;99.90
11142;DHT22;5625;50.122;19.864;2022-11-15T09:21:22;8.40;99.90
11142;DHT22;5625;50.122;19.864;2022-11-15T09:23:51;8.50;99.90
11142;DHT22;5625;50.122;19.864;2022-11-15T09:26:19;8.60;99.90
11142;DHT22;5625;50.122;19.864;2022-11-15T09:28:47;8.80;99.90
11142;DHT22;5625;50.122;19.864;2022-11-15T09:31:15;8.90;99.90
11142;DHT22;5625;50.122;19.864;2022-11-15T09:33:47;9.10;99.90
11142;DHT22;5625;50.122;19.864;2022-11-15T09:36:23;9.20;99.90
11142;DHT22;5625;50.122;19.864;2022-11-15T09:38:57;9.20;99.90
11142;DHT22;5625;50.122;19.864;2022-11-15T09:41:49;9.20;99.90
11142;DHT22;5625;50.122;19.864;2022-11-15T09:50:15;9.10;99.90
11142;DHT22;5625;50.122;19.864;2022-11-15T09:52:45;9.10;99.90
11142;DHT22;5625;50.122;19.864;2022-11-15T09:55:14;9.10;99.90
11142;DHT22;5625;50.122;19.864;2022-11-15T09:57:53;9.00;99.90
11142;DHT22;5625;50.122;19.864;2022-11-15T10:00:25;9.00;99.90
11142;DHT22;5625;50.122;19.864;2022-11-15T10:03:16;9.00;99.90
11142;DHT22;5625;50.122;19.864;2022-11-15T10:05:46;9.10;99.90
11142;DHT22;5625;50.122;19.864;2022-11-15T10:08:30;9.10;99.90
11142;DHT22;5625;50.122;19.864;2022-11-15T10:11:02;9.10;99.90
11142;DHT22;5625;50.122;19.864;2022-11-15T10:13:53;9.20;99.90
11142;DHT22;5625;50.122;19.864;2022-11-15T10:16:49;9.30;99.90
11142;DHT22;5625;50.122;19.864;2022-11-15T10:19:25;9.40;99.90
11142;DHT22;5625;50.122;19.864;2022-11-15T10:22:04;9.40;99.90
11142;DHT22;5625;50.122;19.864;2022-11-15T10:24:39;9.40;99.90
11142;DHT22;5625;50.122;19.864;2022-11-15T10:27:11;9.40;99.90
11142;DHT22;5625;50.122;19.864;2022-11-15T10:29:47;9.40;99.90
11142;DHT22;5625;50.122;19.864;2022-11-15T10:32:19;9.50;99.90
11142;DHT22;5625;50.122;19.864;2022-11-15T10:34:48;9.50;99.90
11142;DHT22;5625;50.122;19.864;2022-11-15T10:37:27;9.50;99.90
11142;DHT22;5625;50.122;19.864;2022-11-15T10:40:06;9.50;99.90
11142;DHT22;5625;50.122;19.864;2022-11-15T10:42:34;9.50;99.90
11142;DHT22;5625;50.122;19.864;2022-11-15T10:45:23;9.50;99.90
11142;DHT22;5625;50.122;19.864;2022-11-15T10:47:51;9.40;99.90
11142;DHT22;5625;50.122;19.864;2022-11-15T10:50:29;9.40;99.90
11142;DHT22;5625;50.122;19.864;2022-11-15T10:52:57;9.50;99.90
11142;DHT22;5625;50.122;19.864;2022-11-15T10:55:35;9.50;99.90
11142;DHT22;5625;50.122;19.864;2022-11-15T10:58:05;9.50;99.90
11142;DHT22;5625;50.122;19.864;2022-11-15T11:00:36;9.60;99.90
11142;DHT22;5625;50.122;19.864;2022-11-15T11:03:09;9.60;99.90
11142;DHT22;5625;50.122;19.864;2022-11-15T11:05:48;9.60;99.90
11142;DHT22;5625;50.122;19.864;2022-11-15T11:08:22;9.60;99.90
11142;DHT22;5625;50.122;19.864;2022-11-15T11:10:57;9.60;99.90
11142;DHT22;5625;50.122;19.864;2022-11-15T11:13:30;9.60;99.90
11142;DHT22;5625;50.122;19.864;2022-11-15T11:16:16;9.60;99.90
11142;DHT22;5625;50.122;19.864;2022-11-15T11:18:51;9.60;99.90
11142;DHT22;5625;50.122;19.864;2022-11-15T11:21:29;9.50;99.90
11142;DHT22;5625;50.122;19.864;2022-11-15T11:24:11;9.50;99.90
11142;DHT22;5625;50.122;19.864;2022-11-15T11:26:59;9.50;99.90
11142;DHT22;5625;50.122;19.864;2022-11-15T11:29:42;9.40;99.90
11142;DHT22;5625;50.122;19.864;2022-11-15T11:32:26;9.40;99.90
11142;DHT22;5625;50.122;19.864;2022-11-15T11:35:01;9.40;99.90
11142;DHT22;5625;50.122;19.864;2022-11-15T11:37:39;9.40;99.90
11142;DHT22;5625;50.122;19.864;2022-11-15T11:40:28;9.30;99.90
11142;DHT22;5625;50.122;19.864;2022-11-15T11:43:06;9.30;99.90
11142;DHT22;5625;50.122;19.864;2022-11-15T11:46:08;9.30;99.90
11142;DHT22;5625;50.122;19.864;2022-11-15T11:48:41;9.30;99.90
11142;DHT22;5625;50.122;19.864;2022-11-15T11:51:18;9.30;99.90
11142;DHT22;5625;50.122;19.864;2022-11-15T11:53:52;9.30;99.90
11142;DHT22;5625;50.122;19.864;2022-11-15T11:56:27;9.30;99.90
11142;DHT22;5625;50.122;19.864;2022-11-15T11:59:00;9.30;99.90
11142;DHT22;5625;50.122;19.864;2022-11-15T12:01:34;9.30;99.90
11142;DHT22;5625;50.122;19.864;2022-11-15T12:04:09;9.30;99.90
11142;DHT22;5625;50.122;19.864;2022-11-15T12:06:49;9.30;99.90
11142;DHT22;5625;50.122;19.864;2022-11-15T12:09:23;9.40;99.90
11142;DHT22;5625;50.122;19.864;2022-11-15T12:11:59;9.30;99.90
11142;DHT22;5625;50.122;19.864;2022-11-15T12:14:33;9.30;99.90
11142;DHT22;5625;50.122;19.864;2022-11-15T12:17:03;9.30;99.90
11142;DHT22;5625;50.122;19.864;2022-11-15T12:19:45;9.30;99.90
11142;DHT22;5625;50.122;19.864;2022-11-15T12:22:22;9.30;99.90
11142;DHT22;5625;50.122;19.864;2022-11-15T12:24:57;9.30;99.90
11142;DHT22;5625;50.122;19.864;2022-11-15T12:27:32;9.30;99.90
11142;DHT22;5625;50.122;19.864;2022-11-15T12:30:09;9.30;99.90
11142;DHT22;5625;50.122;19.864;2022-11-15T12:32:48;9.30;99.90
11142;DHT22;5625;50.122;19.864;2022-11-15T12:35:30;9.30;99.90
11142;DHT22;5625;50.122;19.864;2022-11-15T12:38:00;9.20;99.90
11142;DHT22;5625;50.122;19.864;2022-11-15T12:40:36;9.20;99.90
11142;DHT22;5625;50.122;19.864;2022-11-15T12:43:37;9.20;99.90
11142;DHT22;5625;50.122;19.864;2022-11-15T12:46:19;9.20;99.90
11142;DHT22;5625;50.122;19.864;2022-11-15T12:48:53;9.20;99.90
11142;DHT22;5625;50.122;19.864;2022-11-15T12:54:54;9.10;99.90
11142;DHT22;5625;50.122;19.864;2022-11-15T12:57:34;9.10;99.90
11142;DHT22;5625;50.122;19.864;2022-11-15T13:03:29;9.10;99.90
11142;DHT22;5625;50.122;19.864;2022-11-15T13:08:59;9.00;99.90
11142;DHT22;5625;50.122;19.864;2022-11-15T13:11:51;9.00;99.90
11142;DHT22;5625;50.122;19.864;2022-11-15T13:14:41;9.00;99.90
11142;DHT22;5625;50.122;19.864;2022-11-15T13:17:34;9.10;99.90
11142;DHT22;5625;50.122;19.864;2022-11-15T13:20:21;9.00;99.90
11142;DHT22;5625;50.122;19.864;2022-11-15T13:22:51;9.10;99.90
11142;DHT22;5625;50.122;19.864;2022-11-15T13:25:52;9.00;99.90
11142;DHT22;5625;50.122;19.864;2022-11-15T13:28:27;9.10;99.90
11142;DHT22;5625;50.122;19.864;2022-11-15T13:30:59;9.10;99.90
11142;DHT22;5625;50.122;19.864;2022-11-15T13:33:30;9.00;99.90
11142;DHT22;5625;50.122;19.864;2022-11-15T13:36:06;9.10;99.90
11142;DHT22;5625;50.122;19.864;2022-11-15T13:38:36;9.10;99.90
11142;DHT22;5625;50.122;19.864;2022-11-15T13:41:18;9.10;99.90
11142;DHT22;5625;50.122;19.864;2022-11-15T13:43:53;9.10;99.90
11142;DHT22;5625;50.122;19.864;2022-11-15T13:46:24;9.10;99.90
11142;DHT22;5625;50.122;19.864;2022-11-15T13:48:55;9.10;99.90
11142;DHT22;5625;50.122;19.864;2022-11-15T13:51:36;9.10;99.90
11142;DHT22;5625;50.122;19.864;2022-11-15T13:54:13;9.10;99.90
11142;DHT22;5625;50.122;19.864;2022-11-15T13:56:44;9.10;99.90
11142;DHT22;5625;50.122;19.864;2022-11-15T13:59:17;9.10;99.90
11142;DHT22;5625;50.122;19.864;2022-11-15T14:01:47;9.10;99.90
11142;DHT22;5625;50.122;19.864;2022-11-15T14:04:25;9.10;99.90
11142;DHT22;5625;50.122;19.864;2022-11-15T14:06:58;9.10;99.90
11142;DHT22;5625;50.122;19.864;2022-11-15T14:09:36;9.10;99.90
11142;DHT22;5625;50.122;19.864;2022-11-15T14:12:26;9.10;99.90
11142;DHT22;5625;50.122;19.864;2022-11-15T14:14:55;9.10;99.90
11142;DHT22;5625;50.122;19.864;2022-11-15T14:17:36;9.10;99.90
11142;DHT22;5625;50.122;19.864;2022-11-15T14:20:24;9.10;99.90
11142;DHT22;5625;50.122;19.864;2022-11-15T14:22:57;9.10;99.90
11142;DHT22;5625;50.122;19.864;2022-11-15T14:25:32;9.10;99.90
11142;DHT22;5625;50.122;19.864;2022-11-15T14:28:14;9.10;99.90
11142;DHT22;5625;50.122;19.864;2022-11-15T14:30:44;9.10;99.90
11142;DHT22;5625;50.122;19.864;2022-11-15T14:33:22;9.10;99.90
11142;DHT22;5625;50.122;19.864;2022-11-15T14:36:03;9.10;99.90
11142;DHT22;5625;50.122;19.864;2022-11-15T14:38:33;9.10;99.90
11142;DHT22;5625;50.122;19.864;2022-11-15T14:41:02;9.10;99.90
11142;DHT22;5625;50.122;19.864;2022-11-15T14:43:30;9.10;99.90
11142;DHT22;5625;50.122;19.864;2022-11-15T14:45:58;9.10;99.90
11142;DHT22;5625;50.122;19.864;2022-11-15T14:48:27;9.10;99.90
11142;DHT22;5625;50.122;19.864;2022-11-15T14:50:56;9.00;99.90
11142;DHT22;5625;50.122;19.864;2022-11-15T14:53:24;9.00;99.90
11142;DHT22;5625;50.122;19.864;2022-11-15T14:55:54;9.00;99.90
11142;DHT22;5625;50.122;19.864;2022-11-15T14:58:22;9.00;99.90
11142;DHT22;5625;50.122;19.864;2022-11-15T15:00:50;9.00;99.90
11142;DHT22;5625;50.122;19.864;2022-11-15T15:03:18;9.00;99.90
11142;DHT22;5625;50.122;19.864;2022-11-15T15:05:46;8.90;99.90
11142;DHT22;5625;50.122;19.864;2022-11-15T15:08:16;8.90;99.90
11142;DHT22;5625;50.122;19.864;2022-11-15T15:10:45;8.90;99.90
11142;DHT22;5625;50.122;19.864;2022-11-15T15:13:18;8.90;99.90
11142;DHT22;5625;50.122;19.864;2022-11-15T15:15:47;8.90;99.90
11142;DHT22;5625;50.122;19.864;2022-11-15T15:18:16;8.90;99.90
11142;DHT22;5625;50.122;19.864;2022-11-15T15:20:51;8.90;99.90
11142;DHT22;5625;50.122;19.864;2022-11-15T15:23:21;8.90;99.90
11142;DHT22;5625;50.122;19.864;2022-11-15T15:25:50;8.90;99.90
11142;DHT22;5625;50.122;19.864;2022-11-15T15:28:27;8.90;99.90
11142;DHT22;5625;50.122;19.864;2022-11-15T15:31:00;8.90;99.90
11142;DHT22;5625;50.122;19.864;2022-11-15T15:33:28;8.90;99.90
11142;DHT22;5625;50.122;19.864;2022-11-15T15:35:56;8.90;99.90
11142;DHT22;5625;50.122;19.864;2022-11-15T15:38:31;8.90;99.90
11142;DHT22;5625;50.122;19.864;2022-11-15T15:40:59;8.90;99.90
11142;DHT22;5625;50.122;19.864;2022-11-15T15:43:30;8.90;99.90
11142;DHT22;5625;50.122;19.864;2022-11-15T15:45:58;8.90;99.90
11142;DHT22;5625;50.122;19.864;2022-11-15T15:48:26;8.90;99.90
11142;DHT22;5625;50.122;19.864;2022-11-15T15:50:55;8.90;99.90
11142;DHT22;5625;50.122;19.864;2022-11-15T15:53:23;8.90;99.90
11142;DHT22;5625;50.122;19.864;2022-11-15T15:55:51;8.90;99.90
11142;DHT22;5625;50.122;19.864;2022-11-15T15:58:19;8.80;99.90
11142;DHT22;5625;50.122;19.864;2022-11-15T16:00:48;8.80;99.90
11142;DHT22;5625;50.122;19.864;2022-11-15T16:03:16;8.80;99.90
11142;DHT22;5625;50.122;19.864;2022-11-15T16:05:45;8.80;99.90
11142;DHT22;5625;50.122;19.864;2022-11-15T16:08:18;8.80;99.90
11142;DHT22;5625;50.122;19.864;2022-11-15T16:10:47;8.80;99.90
11142;DHT22;5625;50.122;19.864;2022-11-15T16:13:15;8.70;99.90
11142;DHT22;5625;50.122;19.864;2022-11-15T16:15:44;8.70;99.90
11142;DHT22;5625;50.122;19.864;2022-11-15T16:18:16;8.80;99.90
11142;DHT22;5625;50.122;19.864;2022-11-15T16:20:46;8.80;99.90
11142;DHT22;5625;50.122;19.864;2022-11-15T16:23:17;8.80;99.90
11142;DHT22;5625;50.122;19.864;2022-11-15T16:25:48;8.70;99.90
11142;DHT22;5625;50.122;19.864;2022-11-15T16:28:18;8.80;99.90
11142;DHT22;5625;50.122;19.864;2022-11-15T16:30:47;8.70;99.90
11142;DHT22;5625;50.122;19.864;2022-11-15T16:33:23;8.80;99.90
11142;DHT22;5625;50.122;19.864;2022-11-15T16:35:51;8.80;99.90
11142;DHT22;5625;50.122;19.864;2022-11-15T16:38:20;8.70;99.90
11142;DHT22;5625;50.122;19.864;2022-11-15T16:40:48;8.70;99.90